Time;durP1;ratioP1;P1;durP2;ratioP2;P2;SDS_P1;SDS_P2;PMS_P1;PMS_P2;Temp;Humidity;BMP_temperature;BMP_pressure;BME280_temperature;BME280_humidity;BME280_pressure;Samples;Min_cycle;Max_cycle;Signal;HPM_P1;HPM_P2
2021/12/24 00:02:02;;;;;;;6.43;1.20;;;;;;;11.10;92.93;100289.38;7392525;19;20356;-67
2021/12/24 00:04:29;;;;;;;8.65;1.00;;;;;;;11.14;92.51;100281.97;7393326;19;20047;-66
2021/12/24 00:06:56;;;;;;;8.50;1.42;;;;;;;11.11;92.30;100277.88;7391480;19;20029;-67
2021/12/24 00:09:26;;;;;;;10.48;1.50;;;;;;;11.08;92.32;100283.44;7389462;19;20015;-67
2021/12/24 00:12:00;;;;;;;8.82;1.17;;;;;;;11.07;92.41;100284.44;7392245;19;20010;-68
2021/12/24 00:14:29;;;;;;;11.00;1.80;;;;;;;11.06;92.13;100282.81;7392488;19;20015;-67
2021/12/24 00:17:00;;;;;;;9.68;1.10;;;;;;;11.02;91.62;100272.81;7392599;19;20021;-66
2021/12/24 00:35:51;;;;;;;12.70;1.10;;;;;;;10.82;92.72;100255.75;7389175;19;20603;-67
2021/12/24 00:38:22;;;;;;;7.53;1.85;;;;;;;10.82;93.24;100240.75;7388649;19;20129;-67
2021/12/24 00:40:48;;;;;;;6.97;1.38;;;;;;;10.83;93.01;100239.78;7389475;19;20010;-66
2021/12/24 00:43:16;;;;;;;10.38;0.90;;;;;;;10.81;92.62;100238.31;7388014;19;20026;-67
2021/12/24 00:45:45;;;;;;;114.07;7.43;;;;;;;10.78;92.71;100243.91;7396145;19;20022;-67
2021/12/24 00:48:17;;;;;;;9.50;1.55;;;;;;;10.81;93.44;100251.47;7397982;19;20360;-67
2021/12/24 00:56:00;;;;;;;10.00;1.23;;;;;;;10.76;92.52;100241.47;7382187;19;20015;-69
2021/12/24 00:58:27;;;;;;;11.85;1.23;;;;;;;10.77;92.75;100244.91;7393017;19;20007;-68
2021/12/24 01:00:54;;;;;;;7.82;1.10;;;;;;;10.75;92.78;100242.44;7396219;19;20018;-68
2021/12/24 01:03:21;;;;;;;7.18;1.38;;;;;;;10.71;92.31;100244.59;7399957;19;20010;-68
2021/12/24 01:05:48;;;;;;;30.38;7.38;;;;;;;10.68;92.52;100241.47;7397893;19;20018;-68
2021/12/24 01:08:17;;;;;;;8.50;1.40;;;;;;;10.69;93.39;100237.84;7397426;19;20039;-67
2021/12/24 01:10:49;;;;;;;7.45;1.20;;;;;;;10.70;93.23;100235.06;7398913;19;20126;-68
2021/12/24 01:13:17;;;;;;;9.70;1.40;;;;;;;10.69;93.07;100233.41;7399619;19;20569;-68
2021/12/24 01:15:57;;;;;;;5.95;1.08;;;;;;;10.68;93.28;100231.75;7393734;19;20019;-68
2021/12/24 01:21:18;;;;;;;8.13;1.17;;;;;;;10.64;92.45;100233.09;7398849;19;20082;-69
2021/12/24 01:23:59;;;;;;;8.18;0.98;;;;;;;10.63;92.38;100228.00;7394796;19;20078;-68
2021/12/24 01:40:27;;;;;;;8.02;0.73;;;;;;;10.54;92.21;100239.53;7395538;19;20468;-69
2021/12/24 01:42:55;;;;;;;5.40;0.80;;;;;;;10.51;92.63;100245.94;7393664;19;20014;-67
2021/12/24 01:45:29;;;;;;;14.60;1.20;;;;;;;10.51;92.44;100245.13;7398044;19;20010;-68
2021/12/24 01:48:00;;;;;;;7.78;1.02;;;;;;;10.49;92.14;100237.41;7394879;19;20011;-68
2021/12/24 01:50:30;;;;;;;6.15;1.02;;;;;;;10.48;92.27;100242.81;7397548;19;20366;-69
2021/12/24 01:52:57;;;;;;;12.32;2.10;;;;;;;10.48;93.22;100238.38;7398401;19;20362;-66
2021/12/24 01:55:25;;;;;;;6.75;1.42;;;;;;;10.47;93.16;100241.97;7397074;19;20011;-67
2021/12/24 01:57:53;;;;;;;8.93;1.10;;;;;;;10.44;92.68;100244.97;7395358;19;20014;-69
2021/12/24 02:00:28;;;;;;;10.45;2.72;;;;;;;10.36;92.56;100247.63;7398332;19;20018;-66
2021/12/24 02:02:57;;;;;;;8.57;1.73;;;;;;;10.34;92.98;100244.31;7395962;19;20346;-68
2021/12/24 02:05:25;;;;;;;4.78;1.17;;;;;;;10.31;93.02;100236.75;7395261;19;20021;-67
2021/12/24 02:07:52;;;;;;;10.88;1.88;;;;;;;10.28;92.95;100243.16;7397148;19;20132;-66
2021/12/24 02:10:20;;;;;;;13.15;3.45;;;;;;;10.24;92.83;100247.13;7391983;19;20078;-68
2021/12/24 02:12:49;;;;;;;7.45;1.90;;;;;;;10.26;93.17;100241.69;7394684;19;20025;-65
2021/12/24 02:16:00;;;;;;;6.65;2.03;;;;;;;10.26;93.04;100231.16;7394598;19;20078;-67
2021/12/24 02:29:08;;;;;;;11.65;3.10;;;;;;;10.09;93.02;100240.03;7392489;19;20074;-68
2021/12/24 02:31:35;;;;;;;12.73;2.67;;;;;;;10.05;93.21;100243.97;7393743;19;20086;-66
2021/12/24 02:34:03;;;;;;;9.32;3.00;;;;;;;10.07;93.90;100241.97;7392163;19;20006;-68
2021/12/24 02:36:30;;;;;;;14.45;3.88;;;;;;;10.07;94.12;100239.34;7392374;19;20013;-68
2021/12/24 02:38:56;;;;;;;18.10;3.50;;;;;;;10.07;94.10;100236.72;7391453;19;20017;-67
2021/12/24 02:41:23;;;;;;;9.48;3.70;;;;;;;10.10;94.20;100231.16;7394313;19;20017;-66
2021/12/24 02:43:51;;;;;;;29.48;6.93;;;;;;;10.14;94.27;100233.28;7392708;19;20123;-66
2021/12/24 02:46:31;;;;;;;12.75;3.35;;;;;;;10.19;94.32;100238.91;7392951;19;20006;-67
2021/12/24 02:49:06;;;;;;;12.05;3.05;;;;;;;10.22;94.46;100238.56;7392288;19;20007;-67
2021/12/24 02:54:22;;;;;;;16.60;5.07;;;;;;;10.22;94.36;100233.31;7392703;19;20101;-67
2021/12/24 02:56:52;;;;;;;13.07;3.58;;;;;;;10.25;94.57;100234.78;7391991;19;20090;-67
2021/12/24 02:59:28;;;;;;;13.88;2.95;;;;;;;10.27;94.62;100236.25;7396298;19;20358;-66
2021/12/24 03:01:58;;;;;;;105.78;7.25;;;;;;;10.28;94.52;100227.38;7389902;19;20027;-67
2021/12/24 03:04:26;;;;;;;15.60;4.20;;;;;;;10.32;95.33;100225.25;7397034;19;20014;-66
2021/12/24 03:06:55;;;;;;;15.13;3.72;;;;;;;10.35;95.32;100222.31;7388583;19;20023;-68
2021/12/24 03:09:22;;;;;;;16.13;3.35;;;;;;;10.33;95.10;100223.44;7391085;19;20123;-67
2021/12/24 03:11:51;;;;;;;24.67;7.03;;;;;;;10.33;95.40;100215.53;7393435;19;20021;-67
2021/12/24 03:14:19;;;;;;;13.90;4.05;;;;;;;10.37;95.25;100214.22;7391904;19;20341;-66
2021/12/24 03:16:54;;;;;;;13.43;4.00;;;;;;;10.37;95.29;100209.78;7394213;19;20027;-67
2021/12/24 03:19:25;;;;;;;18.00;4.47;;;;;;;10.39;94.93;100207.00;7391610;19;20027;-67
2021/12/24 03:22:00;;;;;;;25.92;7.07;;;;;;;10.42;95.38;100209.28;7393542;19;20034;-67
2021/12/24 03:26:57;;;;;;;15.65;3.70;;;;;;;10.47;95.62;100199.91;7391494;19;20032;-67
2021/12/24 03:29:24;;;;;;;17.88;4.03;;;;;;;10.48;95.27;100198.09;7390577;19;20440;-66
2021/12/24 03:31:51;;;;;;;18.23;6.38;;;;;;;10.51;95.85;100203.03;7389968;19;20520;-67
2021/12/24 03:34:20;;;;;;;14.88;4.47;;;;;;;10.53;95.64;100199.25;7389666;19;20044;-67
2021/12/24 03:36:48;;;;;;;14.98;4.45;;;;;;;10.53;95.15;100196.59;7391438;19;20074;-67
2021/12/24 03:39:15;;;;;;;74.97;8.65;;;;;;;10.52;94.91;100194.13;7394756;19;20007;-67
2021/12/24 03:41:43;;;;;;;19.25;4.68;;;;;;;10.54;95.13;100187.75;7391042;19;20010;-66
2021/12/24 03:44:11;;;;;;;20.48;4.35;;;;;;;10.55;94.89;100192.00;7391998;19;20015;-66
2021/12/24 03:49:18;;;;;;;15.32;3.47;;;;;;;10.52;95.00;100189.69;7390787;19;20343;-65
2021/12/24 03:51:58;;;;;;;18.92;4.72;;;;;;;10.51;95.03;100192.53;7390986;19;20082;-67
2021/12/24 03:57:10;;;;;;;19.15;3.30;;;;;;;10.52;95.23;100186.25;7390937;19;20351;-65
2021/12/24 03:59:37;;;;;;;107.20;10.10;;;;;;;10.52;95.36;100181.00;7394166;19;20009;-66
2021/12/24 04:02:04;;;;;;;21.45;5.07;;;;;;;10.56;95.89;100182.31;7392377;19;20531;-66
2021/12/24 04:04:31;;;;;;;24.52;4.45;;;;;;;10.57;96.09;100179.50;7395235;19;20455;-68
2021/12/24 04:06:58;;;;;;;18.38;3.63;;;;;;;10.57;95.90;100186.56;7389335;19;20014;-67
2021/12/24 04:09:28;;;;;;;118.68;10.25;;;;;;;10.56;95.58;100180.50;7392051;19;20018;-67
2021/12/24 04:11:55;;;;;;;25.38;5.10;;;;;;;10.60;96.23;100178.34;7391025;19;20018;-67
2021/12/24 04:14:23;;;;;;;19.98;5.53;;;;;;;10.64;96.18;100175.22;7393168;19;20026;-66
2021/12/24 04:16:50;;;;;;;15.05;4.35;;;;;;;10.66;95.96;100173.25;7391592;19;20079;-67
2021/12/24 04:27:14;;;;;;;22.98;4.28;;;;;;;10.62;95.76;100192.13;7392886;19;20078;-66
2021/12/24 04:29:42;;;;;;;13.95;3.47;;;;;;;10.61;95.66;100180.00;7393043;19;20011;-67
2021/12/24 04:32:36;;;;;;;19.67;3.58;;;;;;;10.66;96.06;100181.13;7389833;19;20082;-66
2021/12/24 04:35:14;;;;;;;20.13;3.60;;;;;;;10.68;95.54;100180.94;7389163;19;20010;-67
2021/12/24 04:51:22;;;;;;;21.52;4.60;;;;;;;10.71;95.98;100186.72;7390870;19;20046;-66
2021/12/24 05:02:48;;;;;;;21.95;4.35;;;;;;;10.77;95.86;100181.75;7389173;19;20011;-66
2021/12/24 05:10:22;;;;;;;23.45;6.60;;;;;;;10.80;95.14;100168.25;7386786;19;20027;-65
2021/12/24 05:12:49;;;;;;;23.33;7.63;;;;;;;10.80;95.16;100170.88;7388528;19;20519;-66
2021/12/24 05:15:17;;;;;;;27.75;9.07;;;;;;;10.78;95.13;100172.84;7389089;19;20015;-66
2021/12/24 05:18:06;;;;;;;23.25;8.73;;;;;;;10.80;94.88;100173.50;7388411;19;20409;-66
2021/12/24 05:23:19;;;;;;;26.00;8.38;;;;;;;10.82;95.05;100167.06;7388118;19;20567;-65
2021/12/24 05:25:48;;;;;;;20.75;7.30;;;;;;;10.84;95.06;100166.91;7388256;19;20010;-67
2021/12/24 05:28:16;;;;;;;25.00;7.50;;;;;;;10.82;94.84;100172.34;7389309;19;20014;-66
2021/12/24 05:30:44;;;;;;;27.95;6.25;;;;;;;10.81;94.88;100162.81;7388022;19;20027;-66
2021/12/24 05:33:14;;;;;;;21.33;5.28;;;;;;;10.81;94.58;100159.38;7394483;19;20029;-66
2021/12/24 05:35:42;;;;;;;21.08;4.78;;;;;;;10.82;95.08;100168.91;7395424;19;20011;-66
2021/12/24 05:38:10;;;;;;;18.42;5.30;;;;;;;10.83;94.80;100160.00;7394190;19;20412;-66
2021/12/24 05:40:38;;;;;;;18.02;4.30;;;;;;;10.82;94.80;100164.44;7398145;19;20014;-65
2021/12/24 05:43:05;;;;;;;15.18;4.38;;;;;;;10.84;94.91;100151.13;7395543;19;20006;-67
2021/12/24 05:45:33;;;;;;;17.10;3.88;;;;;;;10.84;95.14;100151.13;7395114;19;20018;-67
2021/12/24 05:48:04;;;;;;;17.70;4.50;;;;;;;10.85;94.68;100160.66;7393388;19;20038;-68
2021/12/24 05:50:32;;;;;;;12.52;4.28;;;;;;;10.85;94.73;100158.84;7392439;19;20090;-66
2021/12/24 05:52:59;;;;;;;17.80;4.10;;;;;;;10.85;94.83;100163.28;7398077;19;20007;-69
2021/12/24 05:55:25;;;;;;;20.80;3.80;;;;;;;10.83;94.95;100150.31;7398827;19;20021;-65
2021/12/24 05:57:52;;;;;;;14.27;3.88;;;;;;;10.83;95.02;100147.66;7396082;19;20003;-68
2021/12/24 06:00:20;;;;;;;14.48;3.60;;;;;;;10.83;94.82;100147.66;7393487;19;20032;-66
2021/12/24 06:02:47;;;;;;;19.65;3.53;;;;;;;10.82;94.77;100140.75;7394475;19;20011;-66
2021/12/24 06:05:15;;;;;;;21.27;3.72;;;;;;;10.80;95.11;100132.22;7398115;19;20014;-67
2021/12/24 06:07:42;;;;;;;21.33;3.13;;;;;;;10.81;94.99;100131.25;7393460;19;20020;-67
2021/12/24 06:10:10;;;;;;;18.10;3.47;;;;;;;10.82;95.06;100137.34;7393389;19;20034;-65
2021/12/24 06:12:37;;;;;;;13.85;2.63;;;;;;;10.85;95.24;100142.25;7394674;19;20367;-66
2021/12/24 06:15:07;;;;;;;26.90;3.53;;;;;;;10.87;95.12;100140.28;7392683;19;20173;-66
2021/12/24 06:17:37;;;;;;;19.33;3.30;;;;;;;10.90;94.78;100150.44;7394156;19;20067;-67
2021/12/24 06:20:06;;;;;;;19.40;3.53;;;;;;;10.89;94.75;100148.78;7396671;19;20023;-66
2021/12/24 06:22:33;;;;;;;23.52;4.03;;;;;;;10.91;95.03;100142.38;7392203;19;20031;-66
2021/12/24 06:25:01;;;;;;;15.38;3.25;;;;;;;10.97;95.31;100140.88;7397406;19;20018;-67
2021/12/24 06:27:27;;;;;;;13.05;2.60;;;;;;;10.99;94.96;100136.25;7397456;19;20010;-66
2021/12/24 06:29:54;;;;;;;17.73;2.50;;;;;;;10.96;94.72;100140.06;7392683;19;20014;-68
2021/12/24 06:32:25;;;;;;;18.05;3.20;;;;;;;10.93;94.39;100144.81;7393970;19;20553;-66
2021/12/24 06:34:52;;;;;;;21.90;2.88;;;;;;;10.91;94.46;100146.81;7395375;19;20018;-67
2021/12/24 06:37:19;;;;;;;16.85;2.38;;;;;;;10.92;94.25;100141.38;7391813;19;20011;-66
2021/12/24 06:39:46;;;;;;;14.13;2.72;;;;;;;10.92;94.26;100144.00;7392329;19;20423;-66
2021/12/24 06:42:14;;;;;;;19.73;5.95;;;;;;;10.95;94.67;100151.56;7388238;19;20010;-67
2021/12/24 06:44:41;;;;;;;17.65;2.90;;;;;;;10.99;94.75;100147.59;7393857;19;20085;-67
2021/12/24 06:47:08;;;;;;;14.02;2.40;;;;;;;10.98;94.63;100147.75;7394249;19;20014;-65
2021/12/24 06:49:35;;;;;;;15.20;3.50;;;;;;;10.97;94.71;100157.47;7392722;19;20017;-67
2021/12/24 06:52:03;;;;;;;74.97;11.68;;;;;;;10.99;94.88;100154.66;7397670;19;20015;-68
2021/12/24 06:54:33;;;;;;;14.30;4.75;;;;;;;11.02;95.23;100157.78;7393125;19;20015;-65
2021/12/24 06:57:01;;;;;;;17.80;5.13;;;;;;;11.04;95.06;100157.59;7392922;19;20481;-67
2021/12/24 06:59:29;;;;;;;23.55;4.03;;;;;;;11.05;95.04;100162.72;7395911;19;20014;-66
2021/12/24 07:01:59;;;;;;;16.13;3.50;;;;;;;11.05;94.62;100161.88;7390613;19;20046;-67
2021/12/24 07:04:29;;;;;;;20.77;5.63;;;;;;;11.09;95.27;100160.53;7393580;19;20018;-66
2021/12/24 07:06:59;;;;;;;15.30;3.92;;;;;;;11.13;95.37;100165.28;7390272;19;20023;-67
2021/12/24 07:09:26;;;;;;;13.90;3.85;;;;;;;11.17;94.82;100170.22;7395907;19;20018;-66
2021/12/24 07:11:53;;;;;;;14.43;3.42;;;;;;;11.15;94.49;100180.91;7392856;19;20066;-67
2021/12/24 07:14:22;;;;;;;22.20;4.45;;;;;;;11.14;94.08;100179.28;7391131;19;20015;-67
2021/12/24 07:16:51;;;;;;;17.38;3.83;;;;;;;11.13;94.02;100175.81;7395791;19;20017;-67
2021/12/24 07:19:17;;;;;;;17.23;4.13;;;;;;;11.15;93.85;100178.28;7391889;19;20003;-66
2021/12/24 07:21:44;;;;;;;15.73;3.10;;;;;;;11.15;93.91;100173.03;7393757;19;20017;-67
2021/12/24 07:24:12;;;;;;;16.20;2.92;;;;;;;11.14;93.96;100166.13;7392197;19;20003;-67
2021/12/24 07:26:39;;;;;;;18.65;3.85;;;;;;;11.13;93.55;100156.56;7390815;19;20007;-67
2021/12/24 07:29:05;;;;;;;11.57;2.50;;;;;;;11.14;93.67;100145.88;7392076;19;20013;-66
2021/12/24 07:31:32;;;;;;;16.80;2.58;;;;;;;11.15;93.50;100157.22;7390124;19;20087;-67
2021/12/24 07:33:59;;;;;;;18.20;2.72;;;;;;;11.13;93.37;100151.31;7391876;19;20081;-67
2021/12/24 07:36:26;;;;;;;19.33;4.60;;;;;;;11.15;93.88;100157.22;7392876;19;20092;-67
2021/12/24 07:38:53;;;;;;;15.80;2.53;;;;;;;11.18;94.27;100162.13;7393010;19;20328;-67
2021/12/24 07:41:20;;;;;;;13.88;2.50;;;;;;;11.17;93.83;100152.63;7391204;19;20015;-67
2021/12/24 07:43:47;;;;;;;12.05;1.92;;;;;;;11.17;93.53;100151.78;7391036;19;20085;-66
2021/12/24 07:46:14;;;;;;;14.70;2.08;;;;;;;11.17;93.55;100162.31;7391073;19;20531;-66
2021/12/24 07:48:48;;;;;;;19.33;3.10;;;;;;;11.18;93.31;100150.78;7395423;19;20052;-67
2021/12/24 07:54:17;;;;;;;13.10;2.80;;;;;;;11.16;93.04;100156.25;7390257;19;20497;-68
2021/12/24 07:56:43;;;;;;;29.20;8.57;;;;;;;11.18;93.21;100148.16;7391113;19;20017;-67
2021/12/24 07:59:12;;;;;;;16.83;3.05;;;;;;;11.22;93.52;100152.09;7394316;19;20021;-67
2021/12/24 08:01:38;;;;;;;16.77;2.08;;;;;;;11.21;92.80;100145.19;7388881;19;20007;-66
2021/12/24 08:04:07;;;;;;;8.65;1.83;;;;;;;11.20;92.69;100147.00;7392620;19;20807;-66
2021/12/24 08:06:34;;;;;;;14.10;2.40;;;;;;;11.21;92.58;100151.28;7390269;19;20118;-66
2021/12/24 08:09:01;;;;;;;8.32;2.13;;;;;;;11.19;92.68;100155.06;7390233;19;20014;-66
2021/12/24 08:11:28;;;;;;;12.90;2.60;;;;;;;11.18;92.58;100164.75;7391295;19;20024;-67
2021/12/24 08:13:55;;;;;;;20.88;2.85;;;;;;;11.16;92.19;100169.41;7390509;19;20018;-68
2021/12/24 08:16:23;;;;;;;20.70;6.43;;;;;;;11.12;92.39;100171.53;7392645;19;20023;-65
2021/12/24 08:18:50;;;;;;;19.20;4.00;;;;;;;11.14;92.69;100164.31;7390059;19;20015;-66
2021/12/24 08:21:17;;;;;;;16.63;3.05;;;;;;;11.17;92.79;100163.16;7394189;19;20032;-66
2021/12/24 08:23:46;;;;;;;21.60;4.13;;;;;;;11.15;92.62;100165.94;7389953;19;20107;-66
2021/12/24 08:26:14;;;;;;;13.73;2.53;;;;;;;11.10;92.48;100159.56;7390136;19;20009;-67
2021/12/24 08:28:43;;;;;;;14.13;3.33;;;;;;;11.07;92.65;100159.91;7392463;19;20110;-69
2021/12/24 08:31:10;;;;;;;13.32;2.55;;;;;;;11.07;92.68;100160.72;7389085;19;20527;-67
2021/12/24 08:33:37;;;;;;;14.57;2.78;;;;;;;11.07;92.59;100173.88;7389427;19;20026;-67
2021/12/24 08:36:06;;;;;;;12.88;2.65;;;;;;;11.11;92.83;100184.91;7389684;19;20019;-67
2021/12/24 08:38:33;;;;;;;17.33;2.65;;;;;;;11.11;92.63;100183.09;7389307;19;20010;-67
2021/12/24 08:41:01;;;;;;;14.98;3.25;;;;;;;11.14;92.59;100176.63;7390399;19;20569;-67
2021/12/24 08:43:28;;;;;;;11.55;3.78;;;;;;;11.12;92.52;100174.16;7389398;19;20014;-67
2021/12/24 08:45:55;;;;;;;15.13;3.80;;;;;;;11.11;92.67;100172.56;7391916;19;20013;-67
2021/12/24 08:48:21;;;;;;;15.73;3.80;;;;;;;11.10;92.77;100156.91;7393726;19;20078;-66
2021/12/24 08:50:49;;;;;;;16.92;3.30;;;;;;;11.11;93.08;100158.56;7390483;19;20033;-67
2021/12/24 08:53:15;;;;;;;16.95;3.47;;;;;;;11.13;93.21;100165.28;7389534;19;20017;-66
2021/12/24 08:55:42;;;;;;;16.67;4.20;;;;;;;11.14;93.12;100159.03;7390539;19;20034;-66
2021/12/24 08:58:09;;;;;;;16.08;4.07;;;;;;;11.16;92.88;100166.78;7392978;19;20018;-68
2021/12/24 09:00:37;;;;;;;18.30;3.95;;;;;;;11.18;93.16;100164.75;7391899;19;20017;-67
2021/12/24 09:03:04;;;;;;;18.88;4.82;;;;;;;11.22;93.02;100152.09;7388564;19;20010;-66
2021/12/24 09:05:31;;;;;;;21.50;4.30;;;;;;;11.23;92.93;100159.78;7395472;19;20360;-66
2021/12/24 09:07:58;;;;;;;20.27;4.28;;;;;;;11.25;92.97;100157.81;7396013;19;20351;-66
2021/12/24 09:10:25;;;;;;;18.75;3.90;;;;;;;11.27;92.57;100147.94;7396030;19;20019;-68
2021/12/24 09:12:53;;;;;;;15.88;4.95;;;;;;;11.30;92.79;100149.41;7396742;19;20007;-67
2021/12/24 09:15:20;;;;;;;18.35;3.85;;;;;;;11.30;92.60;100144.13;7396301;19;20011;-67
2021/12/24 09:17:48;;;;;;;15.55;3.10;;;;;;;11.32;92.46;100131.63;7396225;19;20018;-67
2021/12/24 09:20:24;;;;;;;16.88;4.00;;;;;;;11.32;92.31;100134.25;7396879;19;20013;-67
2021/12/24 09:23:02;;;;;;;9.45;2.17;;;;;;;11.35;92.24;100131.25;7396145;19;20086;-66
2021/12/24 09:25:30;;;;;;;16.65;3.25;;;;;;;11.36;91.75;100128.47;7396133;19;20022;-66
2021/12/24 09:27:57;;;;;;;15.80;2.25;;;;;;;11.39;91.74;100132.53;7395563;19;20098;-67
2021/12/24 09:30:26;;;;;;;62.88;10.13;;;;;;;11.42;91.65;100127.75;7395131;19;20038;-68
2021/12/24 09:36:30;;;;;;;18.40;4.78;;;;;;;11.42;91.70;100119.03;7394936;19;20010;-67
2021/12/24 09:39:03;;;;;;;32.10;6.93;;;;;;;11.44;91.86;100122.31;7393295;19;20011;-68
2021/12/24 09:41:30;;;;;;;16.63;3.75;;;;;;;11.45;91.93;100129.22;7396143;19;20443;-67
2021/12/24 09:43:59;;;;;;;27.48;5.03;;;;;;;11.43;91.85;100124.09;7395336;19;20099;-68
2021/12/24 09:46:27;;;;;;;18.50;4.43;;;;;;;11.44;92.04;100119.66;7395401;19;20019;-66
2021/12/24 09:48:55;;;;;;;22.45;4.75;;;;;;;11.45;92.25;100119.50;7395033;19;20047;-66
2021/12/24 09:51:26;;;;;;;23.10;4.40;;;;;;;11.47;92.21;100112.25;7396001;19;20015;-67
2021/12/24 09:53:55;;;;;;;22.45;4.68;;;;;;;11.45;92.10;100110.78;7394571;19;20027;-66
2021/12/24 09:56:22;;;;;;;15.10;4.45;;;;;;;11.44;91.91;100102.06;7395204;19;20006;-67
2021/12/24 09:58:49;;;;;;;17.35;3.72;;;;;;;11.48;92.16;100099.88;7394673;19;20029;-66
2021/12/24 10:01:35;;;;;;;16.08;3.20;;;;;;;11.50;92.06;100105.78;7395039;19;20049;-66
2021/12/24 10:04:11;;;;;;;14.25;3.28;;;;;;;11.52;91.80;100115.19;7394828;19;20010;-66
2021/12/24 10:06:40;;;;;;;15.52;4.03;;;;;;;11.54;92.12;100109.72;7397667;19;20038;-67
2021/12/24 10:09:11;;;;;;;15.25;4.13;;;;;;;11.55;91.79;100098.19;7393769;19;20415;-66
2021/12/24 10:11:49;;;;;;;;;;;;;;;11.58;91.87;100098.63;7393172;19;20011;-65
2021/12/24 10:14:42;;;;;;;13.98;3.70;;;;;;;11.56;91.53;100108.56;7393519;19;19919;-66
2021/12/24 10:17:24;;;;;;;16.20;4.50;;;;;;;11.61;92.17;100104.56;7393089;19;20010;-65
2021/12/24 10:19:55;;;;;;;14.77;4.53;;;;;;;11.61;91.94;100101.94;7395474;19;20379;-69
2021/12/24 10:22:42;;;;;;;20.38;4.18;;;;;;;11.62;91.79;100104.38;7396516;19;20013;-65
2021/12/24 10:25:12;;;;;;;14.20;3.78;;;;;;;11.62;91.21;100103.56;7395270;19;20015;-66
2021/12/24 10:27:41;;;;;;;12.13;3.85;;;;;;;11.65;91.68;100087.38;7393579;19;20022;-68
2021/12/24 10:30:23;;;;;;;19.35;3.33;;;;;;;11.65;91.45;100079.50;7391807;19;20018;-67
2021/12/24 10:32:53;;;;;;;24.80;5.17;;;;;;;11.65;91.25;100090.03;7393762;19;20010;-67
2021/12/24 10:35:29;;;;;;;15.77;3.78;;;;;;;11.67;91.08;100086.22;7394400;19;20014;-68
2021/12/24 10:38:16;;;;;;;17.20;3.40;;;;;;;11.71;91.46;100084.88;7393062;19;20049;-68
2021/12/24 10:40:58;;;;;;;23.55;3.72;;;;;;;11.71;90.78;100084.06;7394245;19;20070;-67
2021/12/24 10:43:30;;;;;;;17.40;3.85;;;;;;;11.72;90.75;100069.88;7392396;19;20543;-67
2021/12/24 10:46:15;;;;;;;18.73;4.22;;;;;;;11.71;91.11;100068.25;7391972;19;20333;-67
2021/12/24 10:49:37;;;;;;;22.00;4.10;;;;;;;11.72;91.24;100075.97;7396281;19;20006;-67
2021/12/24 10:52:00;;;;;;;21.92;5.40;;;;;;;11.75;91.41;100073.00;7395231;19;20018;-70
2021/12/24 10:54:27;;;;;;;22.80;3.53;;;;;;;11.77;91.63;100060.47;7393095;19;20018;-67
2021/12/24 10:57:14;;;;;;;24.55;5.50;;;;;;;11.79;91.38;100066.38;7393100;19;20017;-66
2021/12/24 10:59:48;;;;;;;19.00;4.97;;;;;;;11.79;91.50;100063.72;7397157;19;20454;-67
2021/12/24 11:02:16;;;;;;;27.40;5.85;;;;;;;11.80;91.56;100064.56;7391796;19;20015;-68
2021/12/24 11:04:43;;;;;;;22.38;3.88;;;;;;;11.84;91.48;100071.91;7393052;19;20006;-66
2021/12/24 11:07:33;;;;;;;13.88;4.22;;;;;;;11.87;91.27;100070.75;7396843;19;20014;-68
2021/12/24 11:10:08;;;;;;;22.65;3.90;;;;;;;11.90;91.33;100073.03;7392248;19;20364;-67
2021/12/24 11:12:37;;;;;;;17.58;4.95;;;;;;;11.93;91.35;100073.50;7395599;19;20089;-67
2021/12/24 11:15:27;;;;;;;16.02;4.30;;;;;;;11.95;91.32;100075.94;7396166;19;20007;-67
2021/12/24 11:18:02;;;;;;;23.40;4.00;;;;;;;11.96;91.24;100059.13;7394433;19;20021;-67
2021/12/24 11:20:34;;;;;;;24.90;6.00;;;;;;;11.97;91.13;100061.59;7392792;19;20018;-67
2021/12/24 11:23:03;;;;;;;21.35;4.93;;;;;;;12.02;91.58;100074.22;7393733;19;20462;-67
2021/12/24 11:25:36;;;;;;;19.58;3.45;;;;;;;12.04;91.05;100079.31;7394830;19;20046;-67
2021/12/24 11:28:06;;;;;;;16.20;3.00;;;;;;;12.05;90.99;100073.03;7390577;19;20103;-67
2021/12/24 11:30:37;;;;;;;18.15;3.38;;;;;;;12.06;90.91;100067.59;7393463;19;20014;-67
2021/12/24 11:33:04;;;;;;;16.05;3.80;;;;;;;12.09;90.99;100051.38;7391710;19;20006;-66
2021/12/24 11:35:32;;;;;;;16.23;3.28;;;;;;;12.12;91.06;100042.31;7394303;19;20174;-66
2021/12/24 11:38:00;;;;;;;12.65;3.20;;;;;;;12.16;90.77;100040.94;7389771;19;20007;-67
2021/12/24 11:40:28;;;;;;;20.13;3.63;;;;;;;12.19;90.81;100044.03;7395428;19;20333;-67
2021/12/24 11:43:04;;;;;;;22.80;5.70;;;;;;;12.25;90.85;100040.66;7393232;19;20034;-67
2021/12/24 11:45:33;;;;;;;17.60;3.70;;;;;;;12.28;90.49;100039.50;7393680;19;20018;-67
2021/12/24 11:48:02;;;;;;;19.48;3.72;;;;;;;12.29;90.00;100041.91;7392135;19;20027;-67
2021/12/24 11:50:30;;;;;;;16.48;3.60;;;;;;;12.33;90.00;100042.41;7389716;19;20535;-67
2021/12/24 11:53:05;;;;;;;19.15;3.45;;;;;;;12.33;89.50;100037.94;7391518;19;20017;-68
2021/12/24 11:55:48;;;;;;;20.08;3.70;;;;;;;12.42;89.86;100034.19;7392141;19;20019;-66
2021/12/24 11:58:18;;;;;;;16.05;3.00;;;;;;;12.47;89.44;100035.47;7392809;19;20085;-69
2021/12/24 12:00:48;;;;;;;17.10;3.63;;;;;;;12.52;89.37;100039.19;7392543;19;20031;-66
2021/12/24 12:03:40;;;;;;;19.27;4.00;;;;;;;12.57;89.70;100033.34;7392751;19;20027;-68
2021/12/24 12:06:33;;;;;;;14.40;3.85;;;;;;;12.63;89.27;100019.41;7391764;19;20018;-67
2021/12/24 12:09:08;;;;;;;14.27;3.78;;;;;;;12.65;88.74;100015.56;7389428;19;20446;-67
2021/12/24 12:11:39;;;;;;;11.27;3.15;;;;;;;12.66;88.42;100011.94;7390106;19;20029;-68
2021/12/24 12:14:21;;;;;;;14.93;3.60;;;;;;;12.68;88.97;100007.28;7393753;19;20087;-67
2021/12/24 12:17:01;;;;;;;23.05;4.20;;;;;;;12.72;88.62;100003.28;7389058;19;20016;-67
2021/12/24 12:24:57;;;;;;;11.32;4.18;;;;;;;12.72;88.36;100007.72;7391829;19;20441;-67
2021/12/24 12:27:36;;;;;;;14.73;4.05;;;;;;;12.75;88.39;100007.34;7390173;19;20032;-67
2021/12/24 12:30:24;;;;;;;13.57;3.70;;;;;;;12.74;87.74;100011.84;7390227;19;20408;-66
2021/12/24 12:33:04;;;;;;;17.02;4.57;;;;;;;12.73;87.77;100012.00;7387033;19;20009;-66
2021/12/24 12:35:57;;;;;;;18.65;4.85;;;;;;;12.74;88.16;100011.00;7394508;19;20102;-68
2021/12/24 12:38:28;;;;;;;11.38;3.92;;;;;;;12.74;87.97;99993.34;7388914;19;20089;-66
2021/12/24 12:41:38;;;;;;;13.10;3.90;;;;;;;12.72;88.06;100003.28;7401098;19;20090;-68
2021/12/24 12:44:08;;;;;;;14.00;5.20;;;;;;;12.71;88.32;99990.25;7399720;19;20078;-68
2021/12/24 12:46:39;;;;;;;13.27;4.55;;;;;;;12.73;88.34;99989.06;7396938;19;20025;-67
2021/12/24 12:49:08;;;;;;;12.55;4.68;;;;;;;12.71;88.10;99983.16;7396847;19;20017;-68
2021/12/24 12:51:55;;;;;;;12.70;4.68;;;;;;;12.74;88.20;99979.34;7397589;19;20280;-66
2021/12/24 12:54:32;;;;;;;14.45;4.80;;;;;;;12.77;88.52;99976.31;7397371;19;20032;-66
2021/12/24 12:57:27;;;;;;;12.07;4.10;;;;;;;12.83;88.24;99973.75;7397440;19;20006;-68
2021/12/24 13:00:20;;;;;;;10.23;3.60;;;;;;;12.85;87.53;99978.81;7397767;19;20010;-67
2021/12/24 13:05:41;;;;;;;15.07;3.97;;;;;;;12.90;88.27;99975.63;7401097;19;20520;-67
2021/12/24 13:08:10;;;;;;;21.25;4.18;;;;;;;12.89;87.21;99971.34;7395488;19;20033;-67
2021/12/24 13:10:38;;;;;;;10.80;3.33;;;;;;;12.89;87.08;99963.44;7400079;19;20128;-67
2021/12/24 13:13:06;;;;;;;12.18;3.47;;;;;;;12.89;86.90;99963.44;7395376;19;20002;-68
2021/12/24 13:15:46;;;;;;;14.02;3.65;;;;;;;12.88;87.55;99957.34;7398761;19;20463;-67
2021/12/24 13:18:29;;;;;;;10.07;3.05;;;;;;;12.90;87.55;99957.16;7398468;19;20066;-69
2021/12/24 13:23:47;;;;;;;15.15;3.28;;;;;;;12.86;87.74;99943.50;7395748;19;20307;-67
2021/12/24 13:26:20;;;;;;;14.55;4.65;;;;;;;12.85;88.30;99932.13;7399019;19;20284;-66
2021/12/24 13:29:11;;;;;;;11.77;2.42;;;;;;;12.86;88.14;99928.47;7398485;19;20090;-66
2021/12/24 13:31:49;;;;;;;15.40;2.08;;;;;;;12.85;88.07;99916.28;7394976;19;20359;-66
2021/12/24 13:34:16;;;;;;;12.27;2.40;;;;;;;12.80;88.01;99913.38;7395452;19;20610;-66